Roxbury, Pennsylvania
Current Conditions -  °F | °C
As of 9:53 AM on Thursday 23 Oct 2014 (Local Time) from KHGR Reporting Station
Overcast Overcast  
Wind Chill: 54°   Ceiling: 3400
Heat Index: 54°   Visibility: 10mi
Dew Point: 42°   Wind: 15mph
Humidity: 64%   Direction: 320°NW
Pressure: 29.95"   Gusts: NA
Location:  40.11°N, 77.66°W
Report Text: KHGR 231353Z 32013KT 10SM OVC034 12/06 A2995 RMK AO2 SLP154 T01220056
Loading
Personal Weather Stations






























Interactive Weather Map
Tropical Storm Tracking
New forecast layout! Learn more

10-Day Weather Forecast

Advertisements
Track Severe Weather on mobile